HETCH HETCHY (HTH)

Elevation: 3870' · TUOLUMNE R basin · Operator: Hetch Hetchy Water and Power

Provisional data, subject to change.
Query executed Saturday at 21:14:22   clock

Select a sensor type for a plot of data.
Note: Reservoir Flows are daily averages.

Earlier

Date RES ELE    STORAGE    RES CHG    OUTFLOW    INFLOW    PPT INC    RAIN    PPTINC4   
 FEET   AF   AF   CFS   CFS   INCHES   INCHES   INCHES  
03/31/2016 -- 255046 -- 1279 -- 0.00 34.61 0.00
04/01/2016 -- 254004 -- 1439 -- 0.00 34.61 0.00
04/02/2016 -- 253658 -- 1437 -- 0.00 34.61 0.00
04/03/2016 -- 254004 -- 1446 -- 0.00 34.61 0.00
04/04/2016 -- 255046 -- 1440 -- 0.00 34.61 0.00
04/05/2016 -- 256612 -- 1442 -- 0.00 34.61 0.00
04/06/2016 -- 258355 -- 1438 -- 0.00 34.61 0.00
04/07/2016 -- 260805 -- 1443 -- 0.00 34.61 0.00
04/08/2016 -- 263784 -- 1427 -- 0.00 34.61 0.00
04/09/2016 -- 266777 -- 1425 -- 0.86 35.47 0.48
04/10/2016 -- 270674 -- 1425 -- 0.46 35.93 0.68
04/11/2016 -- 272988 -- 1428 -- 0.08 36.01 0.05
04/12/2016 -- 275132 -- 1444 -- 0.00 36.01 0.01
04/13/2016 -- 277290 -- 1413 -- 0.00 36.01 0.00
04/14/2016 -- 279271 -- 1414 -- 0.00 36.01 0.00
04/15/2016 -- 280719 -- 1414 -- 0.00 36.01 0.00
04/16/2016 -- 281081 -- 1446 -- 0.00 36.01 0.00
04/17/2016 -- 281262 -- 1501 -- 0.00 36.01 0.00
04/18/2016 -- 280900 -- 2052 -- 0.00 36.01 0.00
04/19/2016 -- 280900 -- 2551 -- 0.00 36.01 0.00
04/20/2016 -- 281986 -- 2552 -- 0.00 36.01 0.00
04/21/2016 -- 283620 -- 2540 -- 0.00 36.01 0.00
04/22/2016 -- 286168 -- 2368 -- 0.00 36.01 0.00
04/23/2016 -- 287631 -- 2362 -- 1.42 37.43 0.81
04/24/2016 -- 287997 -- 2364 -- 0.00 37.43 0.00
04/25/2016 -- 287448 -- 2358 -- 0.30 37.73 0.06
04/26/2016 -- 285986 -- 2373 -- 0.00 37.73 0.05
04/27/2016 -- 284348 -- 2369 -- 0.00 37.73 0.00
04/28/2016 -- 283256 -- 2012 -- 0.24 37.97 0.04
04/29/2016 -- -- -- -- -- 0.00 37.97 0.00
04/30/2016 -- -- -- -- -- -- -- 0.02

Later | Latest

Warning! This data is preliminary and subject to revision.

Show HTH Map | Plot HTH Data | 1 Month HTH Data | Real-Time HTH Data | HTH Info